sensor_id;sensor_type;location;lat;lon;timestamp;pressure;altitude;pressure_sealevel;temperature;humidity
62402;BME280;48440;51.224;22.506;2022-07-03T00:01:39;99779.91;;;20.32;67.57
62402;BME280;48440;51.224;22.506;2022-07-03T00:04:21;99769.69;;;20.32;68.10
62402;BME280;48440;51.224;22.506;2022-07-03T00:07:09;99771.94;;;20.30;67.81
62402;BME280;48440;51.224;22.506;2022-07-03T00:09:47;99760.91;;;20.30;68.20
62402;BME280;48440;51.224;22.506;2022-07-03T00:28:13;99768.19;;;20.26;67.46
62402;BME280;48440;51.224;22.506;2022-07-03T00:30:45;99761.53;;;20.27;67.77
62402;BME280;48440;51.224;22.506;2022-07-03T00:33:22;99762.69;;;20.26;67.51
62402;BME280;48440;51.224;22.506;2022-07-03T00:36:09;99755.53;;;20.25;67.89
62402;BME280;48440;51.224;22.506;2022-07-03T00:41:31;99751.84;;;20.16;68.03
62402;BME280;48440;51.224;22.506;2022-07-03T00:44:09;99759.00;;;20.17;67.71
62402;BME280;48440;51.224;22.506;2022-07-03T00:46:45;99752.16;;;20.15;67.71
62402;BME280;48440;51.224;22.506;2022-07-03T00:49:25;99761.53;;;20.14;67.69
62402;BME280;48440;51.224;22.506;2022-07-03T00:52:03;99766.75;;;20.15;67.57
62402;BME280;48440;51.224;22.506;2022-07-03T00:54:59;99766.63;;;20.07;67.93
62402;BME280;48440;51.224;22.506;2022-07-03T00:57:36;99759.41;;;20.11;67.34
62402;BME280;48440;51.224;22.506;2022-07-03T01:00:15;99762.47;;;20.09;67.34
62402;BME280;48440;51.224;22.506;2022-07-03T01:05:32;99760.53;;;20.10;67.14
62402;BME280;48440;51.224;22.506;2022-07-03T01:11:07;99759.50;;;20.06;66.67
62402;BME280;48440;51.224;22.506;2022-07-03T01:30:16;99746.34;;;20.03;66.23
62402;BME280;48440;51.224;22.506;2022-07-03T02:00:27;99735.13;;;19.85;66.33
62402;BME280;48440;51.224;22.506;2022-07-03T02:03:51;99734.91;;;19.82;66.26
62402;BME280;48440;51.224;22.506;2022-07-03T02:06:44;99732.16;;;19.82;65.89
62402;BME280;48440;51.224;22.506;2022-07-03T02:09:29;99728.88;;;19.80;66.59
62402;BME280;48440;51.224;22.506;2022-07-03T02:20:35;99722.69;;;19.74;66.35
62402;BME280;48440;51.224;22.506;2022-07-03T02:23:07;99723.50;;;19.75;66.50
62402;BME280;48440;51.224;22.506;2022-07-03T02:25:41;99723.00;;;19.73;66.36
62402;BME280;48440;51.224;22.506;2022-07-03T02:31:18;99729.41;;;19.68;66.38
62402;BME280;48440;51.224;22.506;2022-07-03T02:33:55;99730.81;;;19.65;66.53
62402;BME280;48440;51.224;22.506;2022-07-03T02:36:28;99726.13;;;19.66;66.68
62402;BME280;48440;51.224;22.506;2022-07-03T02:39:08;99725.31;;;19.65;66.36
62402;BME280;48440;51.224;22.506;2022-07-03T02:41:56;99726.13;;;19.66;66.18
62402;BME280;48440;51.224;22.506;2022-07-03T02:44:53;99721.03;;;19.59;66.66
62402;BME280;48440;51.224;22.506;2022-07-03T02:47:30;99727.03;;;19.61;66.70
62402;BME280;48440;51.224;22.506;2022-07-03T02:50:10;99727.66;;;19.58;66.64
62402;BME280;48440;51.224;22.506;2022-07-03T02:53:30;99725.50;;;19.55;67.03
62402;BME280;48440;51.224;22.506;2022-07-03T02:56:23;99723.78;;;19.59;66.87
62402;BME280;48440;51.224;22.506;2022-07-03T02:59:35;99721.03;;;19.59;66.79
62402;BME280;48440;51.224;22.506;2022-07-03T03:02:49;99722.44;;;19.57;67.08
62402;BME280;48440;51.224;22.506;2022-07-03T03:05:28;99734.78;;;19.59;66.80
62402;BME280;48440;51.224;22.506;2022-07-03T03:13:42;99731.09;;;19.50;67.23
62402;BME280;48440;51.224;22.506;2022-07-03T03:16:30;99731.91;;;19.51;67.17
62402;BME280;48440;51.224;22.506;2022-07-03T03:19:25;99737.41;;;19.51;67.09
62402;BME280;48440;51.224;22.506;2022-07-03T03:22:21;99730.88;;;19.47;67.43
62402;BME280;48440;51.224;22.506;2022-07-03T03:24:51;99727.50;;;19.50;67.20
62402;BME280;48440;51.224;22.506;2022-07-03T03:27:25;99729.44;;;19.49;67.12
62402;BME280;48440;51.224;22.506;2022-07-03T03:30:02;99727.00;;;19.48;67.42
62402;BME280;48440;51.224;22.506;2022-07-03T03:32:36;99725.28;;;19.52;67.22
62402;BME280;48440;51.224;22.506;2022-07-03T03:35:29;99725.38;;;19.47;67.18
62402;BME280;48440;51.224;22.506;2022-07-03T03:40:47;99734.84;;;19.41;67.86
62402;BME280;48440;51.224;22.506;2022-07-03T03:43:25;99730.75;;;19.38;68.24
62402;BME280;48440;51.224;22.506;2022-07-03T03:51:23;99738.41;;;19.41;68.51
62402;BME280;48440;51.224;22.506;2022-07-03T03:54:03;99736.78;;;19.40;68.79
62402;BME280;48440;51.224;22.506;2022-07-03T03:56:34;99734.91;;;19.36;69.00
62402;BME280;48440;51.224;22.506;2022-07-03T03:59:17;99733.19;;;19.40;68.59
62402;BME280;48440;51.224;22.506;2022-07-03T04:01:51;99742.78;;;19.42;68.93
62402;BME280;48440;51.224;22.506;2022-07-03T04:04:20;99732.09;;;19.41;68.97
62402;BME280;48440;51.224;22.506;2022-07-03T04:06:53;99733.41;;;19.43;68.84
62402;BME280;48440;51.224;22.506;2022-07-03T04:09:25;99736.47;;;19.42;68.68
62402;BME280;48440;51.224;22.506;2022-07-03T04:11:59;99729.53;;;19.44;68.85
62402;BME280;48440;51.224;22.506;2022-07-03T04:14:27;99727.69;;;19.40;68.99
62402;BME280;48440;51.224;22.506;2022-07-03T04:16:58;99727.69;;;19.40;68.94
62402;BME280;48440;51.224;22.506;2022-07-03T04:19:27;99726.59;;;19.41;68.86
62402;BME280;48440;51.224;22.506;2022-07-03T04:21:53;99731.56;;;19.39;69.31
62402;BME280;48440;51.224;22.506;2022-07-03T04:24:29;99724.66;;;19.41;69.27
62402;BME280;48440;51.224;22.506;2022-07-03T04:27:27;99722.72;;;19.42;69.06
62402;BME280;48440;51.224;22.506;2022-07-03T04:30:02;99714.84;;;19.35;69.68
62402;BME280;48440;51.224;22.506;2022-07-03T04:32:37;99723.22;;;19.44;69.10
62402;BME280;48440;51.224;22.506;2022-07-03T04:42:51;99719.97;;;19.42;68.76
62402;BME280;48440;51.224;22.506;2022-07-03T04:45:33;99724.34;;;19.43;68.94
62402;BME280;48440;51.224;22.506;2022-07-03T04:48:02;99717.13;;;19.47;68.96
62402;BME280;48440;51.224;22.506;2022-07-03T04:50:30;99716.31;;;19.46;68.90
62402;BME280;48440;51.224;22.506;2022-07-03T04:53:03;99710.50;;;19.48;68.96
62402;BME280;48440;51.224;22.506;2022-07-03T04:55:33;99703.47;;;19.55;68.86
62402;BME280;48440;51.224;22.506;2022-07-03T04:58:19;99705.41;;;19.55;68.93
62402;BME280;48440;51.224;22.506;2022-07-03T05:00:50;99711.53;;;19.52;68.90
62402;BME280;48440;51.224;22.506;2022-07-03T05:03:37;99709.59;;;19.52;68.74
62402;BME280;48440;51.224;22.506;2022-07-03T05:06:11;99706.13;;;19.47;69.21
62402;BME280;48440;51.224;22.506;2022-07-03T05:08:49;99712.00;;;19.40;69.64
62402;BME280;48440;51.224;22.506;2022-07-03T05:11:22;99712.69;;;19.32;69.97
62402;BME280;48440;51.224;22.506;2022-07-03T05:13:55;99709.22;;;19.26;70.47
62402;BME280;48440;51.224;22.506;2022-07-03T05:16:32;99716.47;;;19.22;70.81
62402;BME280;48440;51.224;22.506;2022-07-03T05:27:35;99708.59;;;19.29;70.47
62402;BME280;48440;51.224;22.506;2022-07-03T05:44:15;99713.28;;;19.29;70.94
62402;BME280;48440;51.224;22.506;2022-07-03T05:53:03;99713.28;;;19.29;71.24
62402;BME280;48440;51.224;22.506;2022-07-03T06:16:08;99723.22;;;19.44;70.08
62402;BME280;48440;51.224;22.506;2022-07-03T06:26:32;99714.50;;;19.55;69.54
62402;BME280;48440;51.224;22.506;2022-07-03T06:28:59;99715.00;;;19.57;69.16
62402;BME280;48440;51.224;22.506;2022-07-03T06:31:27;99713.81;;;19.63;69.05
62402;BME280;48440;51.224;22.506;2022-07-03T06:33:59;99709.84;;;19.70;68.85
62402;BME280;48440;51.224;22.506;2022-07-03T06:36:39;99710.66;;;19.70;68.66
62402;BME280;48440;51.224;22.506;2022-07-03T06:39:21;99709.31;;;19.68;68.46
62402;BME280;48440;51.224;22.506;2022-07-03T06:42:02;99715.03;;;19.71;68.55
62402;BME280;48440;51.224;22.506;2022-07-03T06:44:43;99715.72;;;19.77;67.96
62402;BME280;48440;51.224;22.506;2022-07-03T06:47:18;99715.03;;;19.71;68.10
62402;BME280;48440;51.224;22.506;2022-07-03T06:52:57;99720.84;;;19.70;68.59
62402;BME280;48440;51.224;22.506;2022-07-03T07:13:43;99720.03;;;19.83;68.29
62402;BME280;48440;51.224;22.506;2022-07-03T07:16:59;99712.38;;;19.80;68.40
62402;BME280;48440;51.224;22.506;2022-07-03T07:19:58;99714.31;;;19.79;68.57
62402;BME280;48440;51.224;22.506;2022-07-03T07:22:58;99715.13;;;19.80;68.50
62402;BME280;48440;51.224;22.506;2022-07-03T07:40:15;99716.66;;;19.86;68.38
62402;BME280;48440;51.224;22.506;2022-07-03T07:43:02;99714.72;;;19.86;68.42
62402;BME280;48440;51.224;22.506;2022-07-03T07:45:48;99705.75;;;19.81;68.40
62402;BME280;48440;51.224;22.506;2022-07-03T07:48:26;99714.13;;;19.89;68.63
62402;BME280;48440;51.224;22.506;2022-07-03T07:51:22;99708.91;;;19.88;68.75
62402;BME280;48440;51.224;22.506;2022-07-03T08:23:41;99703.38;;;20.02;68.48
62402;BME280;48440;51.224;22.506;2022-07-03T08:31:42;99688.88;;;20.23;67.41
62402;BME280;48440;51.224;22.506;2022-07-03T08:38:10;99693.44;;;20.28;67.31
62402;BME280;48440;51.224;22.506;2022-07-03T08:40:44;99696.72;;;20.30;67.05
62402;BME280;48440;51.224;22.506;2022-07-03T09:05:33;99694.22;;;20.56;65.93
62402;BME280;48440;51.224;22.506;2022-07-03T09:08:09;99699.22;;;20.54;66.25
62402;BME280;48440;51.224;22.506;2022-07-03T09:26:53;99699.69;;;20.47;66.54
62402;BME280;48440;51.224;22.506;2022-07-03T09:30:12;99698.25;;;20.50;67.04
62402;BME280;48440;51.224;22.506;2022-07-03T09:33:18;99700.19;;;20.49;67.16
62402;BME280;48440;51.224;22.506;2022-07-03T09:36:01;99709.28;;;20.50;66.87
62402;BME280;48440;51.224;22.506;2022-07-03T09:41:54;99703.75;;;20.50;66.87
62402;BME280;48440;51.224;22.506;2022-07-03T09:50:07;99688.25;;;20.40;67.65
62402;BME280;48440;51.224;22.506;2022-07-03T09:52:44;99695.09;;;20.43;67.61
62402;BME280;48440;51.224;22.506;2022-07-03T09:55:17;99690.78;;;20.37;66.96
62402;BME280;48440;51.224;22.506;2022-07-03T10:00:22;99696.59;;;20.35;67.25
62402;BME280;48440;51.224;22.506;2022-07-03T10:03:08;99685.50;;;20.40;67.65
62402;BME280;48440;51.224;22.506;2022-07-03T10:08:12;99685.09;;;20.47;67.54
62402;BME280;48440;51.224;22.506;2022-07-03T10:10:49;99688.66;;;20.47;66.92
62402;BME280;48440;51.224;22.506;2022-07-03T10:13:44;99682.84;;;20.49;66.82
62402;BME280;48440;51.224;22.506;2022-07-03T10:27:16;99664.50;;;21.42;64.85
62402;BME280;48440;51.224;22.506;2022-07-03T10:32:33;99665.00;;;21.92;63.71
62402;BME280;48440;51.224;22.506;2022-07-03T10:35:06;99662.91;;;21.98;63.25
62402;BME280;48440;51.224;22.506;2022-07-03T10:43:41;99654.84;;;22.19;62.50
62402;BME280;48440;51.224;22.506;2022-07-03T10:46:41;99650.28;;;22.14;62.91
62402;BME280;48440;51.224;22.506;2022-07-03T10:49:13;99649.00;;;22.03;62.91
62402;BME280;48440;51.224;22.506;2022-07-03T10:54:16;99649.06;;;21.89;62.80
62402;BME280;48440;51.224;22.506;2022-07-03T11:13:03;99654.03;;;21.61;64.49
62402;BME280;48440;51.224;22.506;2022-07-03T11:15:57;99651.09;;;21.58;64.71
62402;BME280;48440;51.224;22.506;2022-07-03T11:18:45;99656.13;;;21.56;64.93
62402;BME280;48440;51.224;22.506;2022-07-03T11:21:49;99654.97;;;21.57;65.07
62402;BME280;48440;51.224;22.506;2022-07-03T11:24:37;99653.38;;;21.56;64.65
62402;BME280;48440;51.224;22.506;2022-07-03T11:27:26;99658.72;;;21.61;64.78
62402;BME280;48440;51.224;22.506;2022-07-03T11:39:35;99649.00;;;22.03;62.89
62402;BME280;48440;51.224;22.506;2022-07-03T11:42:09;99639.06;;;22.11;62.18
62402;BME280;48440;51.224;22.506;2022-07-03T11:44:38;99638.44;;;22.14;62.68
62402;BME280;48440;51.224;22.506;2022-07-03T11:47:12;99628.38;;;22.26;62.56
62402;BME280;48440;51.224;22.506;2022-07-03T11:49:48;99625.63;;;22.26;62.25
62402;BME280;48440;51.224;22.506;2022-07-03T12:03:26;99627.72;;;22.29;61.81
62402;BME280;48440;51.224;22.506;2022-07-03T12:05:57;99630.31;;;22.26;62.77
62402;BME280;48440;51.224;22.506;2022-07-03T12:16:36;99625.44;;;22.06;62.76
62402;BME280;48440;51.224;22.506;2022-07-03T12:19:10;99623.47;;;22.15;62.06
62402;BME280;48440;51.224;22.506;2022-07-03T12:21:39;99618.41;;;21.99;62.20
62402;BME280;48440;51.224;22.506;2022-07-03T12:24:14;99616.41;;;21.91;62.42
62402;BME280;48440;51.224;22.506;2022-07-03T12:26:43;99613.50;;;21.96;62.53
62402;BME280;48440;51.224;22.506;2022-07-03T12:29:16;99614.53;;;22.00;62.91
62402;BME280;48440;51.224;22.506;2022-07-03T12:31:46;99623.63;;;22.01;63.07
62402;BME280;48440;51.224;22.506;2022-07-03T12:34:14;99610.09;;;21.99;62.63
62402;BME280;48440;51.224;22.506;2022-07-03T12:36:57;99613.03;;;21.94;62.74
62402;BME280;48440;51.224;22.506;2022-07-03T12:39:47;99610.09;;;21.99;62.75
62402;BME280;48440;51.224;22.506;2022-07-03T12:42:20;99606.09;;;22.06;62.92
62402;BME280;48440;51.224;22.506;2022-07-03T12:45:02;99604.63;;;22.08;62.28
62402;BME280;48440;51.224;22.506;2022-07-03T12:47:31;99609.50;;;22.11;62.03
62402;BME280;48440;51.224;22.506;2022-07-03T12:50:02;99605.44;;;22.17;62.19
62402;BME280;48440;51.224;22.506;2022-07-03T12:55:53;99606.25;;;22.35;61.56
62402;BME280;48440;51.224;22.506;2022-07-03T12:58:36;99606.75;;;22.28;61.83
62402;BME280;48440;51.224;22.506;2022-07-03T13:01:36;99604.63;;;22.25;61.47
62402;BME280;48440;51.224;22.506;2022-07-03T13:07:03;99605.91;;;22.37;61.17
62402;BME280;48440;51.224;22.506;2022-07-03T13:09:41;99600.41;;;22.45;61.40
62402;BME280;48440;51.224;22.506;2022-07-03T13:12:24;99600.06;;;22.47;61.71
62402;BME280;48440;51.224;22.506;2022-07-03T13:14:59;99599.59;;;22.53;61.46
62402;BME280;48440;51.224;22.506;2022-07-03T13:20:34;99601.19;;;22.63;60.37
62402;BME280;48440;51.224;22.506;2022-07-03T13:23:05;99596.16;;;22.65;60.43
62402;BME280;48440;51.224;22.506;2022-07-03T13:25:48;99594.34;;;22.69;60.00
62402;BME280;48440;51.224;22.506;2022-07-03T13:28:17;99593.69;;;22.72;60.14
62402;BME280;48440;51.224;22.506;2022-07-03T13:30:44;99584.91;;;22.61;60.00
62402;BME280;48440;51.224;22.506;2022-07-03T13:33:19;99581.22;;;22.57;59.91
62402;BME280;48440;51.224;22.506;2022-07-03T13:35:49;99586.09;;;22.52;60.26
62402;BME280;48440;51.224;22.506;2022-07-03T13:38:17;99572.75;;;22.54;60.31
62402;BME280;48440;51.224;22.506;2022-07-03T13:40:56;99573.41;;;22.51;60.75
62402;BME280;48440;51.224;22.506;2022-07-03T13:43:26;99577.63;;;22.57;60.51
62402;BME280;48440;51.224;22.506;2022-07-03T13:45:57;99573.41;;;22.59;60.52
62402;BME280;48440;51.224;22.506;2022-07-03T13:48:26;99563.28;;;22.72;60.22
62402;BME280;48440;51.224;22.506;2022-07-03T13:50:55;99571.25;;;22.74;59.91
62402;BME280;48440;51.224;22.506;2022-07-03T13:53:29;99569.28;;;22.74;59.84
62402;BME280;48440;51.224;22.506;2022-07-03T13:56:05;99568.63;;;22.77;60.03
62402;BME280;48440;51.224;22.506;2022-07-03T13:58:42;99562.81;;;22.79;60.24
62402;BME280;48440;51.224;22.506;2022-07-03T14:01:16;99558.41;;;22.86;60.05
62402;BME280;48440;51.224;22.506;2022-07-03T14:03:43;99555.16;;;22.84;59.76
62402;BME280;48440;51.224;22.506;2022-07-03T14:06:15;99560.97;;;22.91;59.79
62402;BME280;48440;51.224;22.506;2022-07-03T14:08:46;99561.28;;;22.98;59.96
62402;BME280;48440;51.224;22.506;2022-07-03T14:11:14;99551.34;;;22.97;59.98
62402;BME280;48440;51.224;22.506;2022-07-03T14:13:44;99549.25;;;22.94;59.62
62402;BME280;48440;51.224;22.506;2022-07-03T14:16:18;99541.28;;;22.93;60.35
62402;BME280;48440;51.224;22.506;2022-07-03T15:19:50;99505.75;;;22.48;60.80
62402;BME280;48440;51.224;22.506;2022-07-03T15:22:20;99501.50;;;22.51;60.98
62402;BME280;48440;51.224;22.506;2022-07-03T15:24:52;99507.84;;;22.51;60.95
62402;BME280;48440;51.224;22.506;2022-07-03T15:27:26;99502.31;;;22.51;60.65
62402;BME280;48440;51.224;22.506;2022-07-03T15:29:56;99506.06;;;22.55;60.85
62402;BME280;48440;51.224;22.506;2022-07-03T15:35:22;99508.19;;;22.50;60.43
62402;BME280;48440;51.224;22.506;2022-07-03T15:51:22;99489.00;;;22.36;60.02
62402;BME280;48440;51.224;22.506;2022-07-03T15:56:29;99484.63;;;22.35;60.38
62402;BME280;48440;51.224;22.506;2022-07-03T15:59:02;99483.84;;;22.34;60.00
62402;BME280;48440;51.224;22.506;2022-07-03T16:01:30;99478.63;;;22.33;59.98
62402;BME280;48440;51.224;22.506;2022-07-03T16:04:28;99477.34;;;22.30;59.79
62402;BME280;48440;51.224;22.506;2022-07-03T16:06:55;99477.66;;;22.29;59.72
62402;BME280;48440;51.224;22.506;2022-07-03T16:09:22;99479.44;;;22.25;59.27
62402;BME280;48440;51.224;22.506;2022-07-03T16:11:50;99470.03;;;22.26;59.46
62402;BME280;48440;51.224;22.506;2022-07-03T16:14:17;99470.19;;;22.29;59.51
62402;BME280;48440;51.224;22.506;2022-07-03T16:16:44;99473.09;;;22.33;59.52
62402;BME280;48440;51.224;22.506;2022-07-03T16:19:13;99466.88;;;22.36;59.87
62402;BME280;48440;51.224;22.506;2022-07-03T16:21:40;99477.63;;;22.38;59.50
62402;BME280;48440;51.224;22.506;2022-07-03T16:24:07;99464.94;;;22.37;59.09
62402;BME280;48440;51.224;22.506;2022-07-03T16:26:36;99471.97;;;22.34;59.39
62402;BME280;48440;51.224;22.506;2022-07-03T16:29:03;99467.25;;;22.34;59.52
62402;BME280;48440;51.224;22.506;2022-07-03T16:31:39;99459.28;;;22.33;59.69
62402;BME280;48440;51.224;22.506;2022-07-03T16:34:30;99467.91;;;22.31;59.86
62402;BME280;48440;51.224;22.506;2022-07-03T16:37:01;99461.06;;;22.29;60.13
62402;BME280;48440;51.224;22.506;2022-07-03T16:39:37;99463.84;;;22.29;60.03
62402;BME280;48440;51.224;22.506;2022-07-03T16:42:10;99459.78;;;22.26;60.02
62402;BME280;48440;51.224;22.506;2022-07-03T16:44:41;99462.06;;;22.24;60.04
62402;BME280;48440;51.224;22.506;2022-07-03T16:47:11;99464.81;;;22.24;59.85
62402;BME280;48440;51.224;22.506;2022-07-03T16:49:40;99464.81;;;22.24;60.07
62402;BME280;48440;51.224;22.506;2022-07-03T16:52:11;99464.31;;;22.22;60.12
62402;BME280;48440;51.224;22.506;2022-07-03T16:54:37;99458.00;;;22.22;60.34
62402;BME280;48440;51.224;22.506;2022-07-03T16:57:09;99455.22;;;22.22;60.85
62402;BME280;48440;51.224;22.506;2022-07-03T16:59:38;99454.75;;;22.20;61.07
62402;BME280;48440;51.224;22.506;2022-07-03T17:02:12;99459.94;;;22.21;61.10
62402;BME280;48440;51.224;22.506;2022-07-03T17:04:42;99460.25;;;22.20;61.33
62402;BME280;48440;51.224;22.506;2022-07-03T17:07:12;99460.59;;;22.18;61.68
62402;BME280;48440;51.224;22.506;2022-07-03T17:09:41;99465.31;;;22.18;61.53
62402;BME280;48440;51.224;22.506;2022-07-03T17:12:13;99463.69;;;22.17;61.73
62402;BME280;48440;51.224;22.506;2022-07-03T17:14:44;99464.00;;;22.15;61.53
62402;BME280;48440;51.224;22.506;2022-07-03T17:17:15;99464.34;;;22.14;61.46
62402;BME280;48440;51.224;22.506;2022-07-03T17:20:05;99454.41;;;22.13;61.77
62402;BME280;48440;51.224;22.506;2022-07-03T17:22:41;99457.19;;;22.13;61.65
62402;BME280;48440;51.224;22.506;2022-07-03T17:25:26;99451.16;;;22.11;61.45
62402;BME280;48440;51.224;22.506;2022-07-03T17:28:00;99454.25;;;22.09;61.77
62402;BME280;48440;51.224;22.506;2022-07-03T17:30:36;99461.75;;;22.09;61.69
62402;BME280;48440;51.224;22.506;2022-07-03T17:33:11;99465.19;;;22.06;62.27
62402;BME280;48440;51.224;22.506;2022-07-03T17:35:50;99467.44;;;22.04;62.48
62402;BME280;48440;51.224;22.506;2022-07-03T17:38:20;99462.88;;;21.99;62.44
62402;BME280;48440;51.224;22.506;2022-07-03T17:40:56;99463.19;;;21.97;62.81
62402;BME280;48440;51.224;22.506;2022-07-03T17:43:38;99467.41;;;21.95;63.12
62402;BME280;48440;51.224;22.506;2022-07-03T17:46:12;99472.44;;;21.93;63.56
62402;BME280;48440;51.224;22.506;2022-07-03T17:48:40;99465.63;;;21.90;63.52
62402;BME280;48440;51.224;22.506;2022-07-03T17:51:20;99460.41;;;21.89;64.00
62402;BME280;48440;51.224;22.506;2022-07-03T17:59:53;99462.22;;;21.85;64.61
62402;BME280;48440;51.224;22.506;2022-07-03T18:02:46;99458.97;;;21.83;64.69
62402;BME280;48440;51.224;22.506;2022-07-03T18:05:29;99462.41;;;21.80;64.54
62402;BME280;48440;51.224;22.506;2022-07-03T18:08:29;99463.03;;;21.77;65.04
62402;BME280;48440;51.224;22.506;2022-07-03T18:16:59;99460.25;;;21.68;65.47
62402;BME280;48440;51.224;22.506;2022-07-03T18:19:32;99465.94;;;21.63;65.68
62402;BME280;48440;51.224;22.506;2022-07-03T18:22:12;99464.63;;;21.60;65.55
62402;BME280;48440;51.224;22.506;2022-07-03T18:24:44;99459.75;;;21.57;65.67
62402;BME280;48440;51.224;22.506;2022-07-03T18:27:24;99451.34;;;21.54;66.02
62402;BME280;48440;51.224;22.506;2022-07-03T18:29:59;99455.22;;;21.53;65.66
62402;BME280;48440;51.224;22.506;2022-07-03T18:32:27;99451.97;;;21.51;65.62
62402;BME280;48440;51.224;22.506;2022-07-03T18:35:05;99448.72;;;21.49;65.34
62402;BME280;48440;51.224;22.506;2022-07-03T18:37:34;99449.06;;;21.47;65.27
62402;BME280;48440;51.224;22.506;2022-07-03T18:40:21;99442.72;;;21.47;65.28
62402;BME280;48440;51.224;22.506;2022-07-03T18:42:56;99448.56;;;21.45;65.56
62402;BME280;48440;51.224;22.506;2022-07-03T18:45:28;99447.25;;;21.43;65.78
62402;BME280;48440;51.224;22.506;2022-07-03T18:47:54;99452.09;;;21.37;66.07
62402;BME280;48440;51.224;22.506;2022-07-03T18:50:21;99457.34;;;21.47;65.80
62402;BME280;48440;51.224;22.506;2022-07-03T18:53:00;99453.28;;;21.53;65.59
62402;BME280;48440;51.224;22.506;2022-07-03T18:55:45;99449.72;;;21.53;65.85
62402;BME280;48440;51.224;22.506;2022-07-03T19:00:49;99451.66;;;21.52;65.76
62402;BME280;48440;51.224;22.506;2022-07-03T19:03:16;99461.88;;;21.52;66.00
62402;BME280;48440;51.224;22.506;2022-07-03T19:05:55;99460.25;;;21.51;65.95
62402;BME280;48440;51.224;22.506;2022-07-03T19:08:32;99463.34;;;21.49;66.15
62402;BME280;48440;51.224;22.506;2022-07-03T19:11:03;99464.81;;;21.47;66.26
62402;BME280;48440;51.224;22.506;2022-07-03T19:16:46;99463.31;;;21.41;66.58
62402;BME280;48440;51.224;22.506;2022-07-03T19:19:13;99467.22;;;21.40;66.79
62402;BME280;48440;51.224;22.506;2022-07-03T19:21:40;99464.28;;;21.36;66.75
62402;BME280;48440;51.224;22.506;2022-07-03T19:24:06;99461.84;;;21.34;66.97
62402;BME280;48440;51.224;22.506;2022-07-03T19:26:32;99462.03;;;21.29;66.96
62402;BME280;48440;51.224;22.506;2022-07-03T19:28:57;99464.94;;;21.24;67.12
62402;BME280;48440;51.224;22.506;2022-07-03T19:31:23;99457.56;;;21.20;67.34
62402;BME280;48440;51.224;22.506;2022-07-03T19:33:48;99460.47;;;21.15;67.53
62402;BME280;48440;51.224;22.506;2022-07-03T19:36:14;99460.78;;;21.05;67.98
62402;BME280;48440;51.224;22.506;2022-07-03T19:38:40;99466.59;;;20.94;68.34
62402;BME280;48440;51.224;22.506;2022-07-03T19:41:05;99463.47;;;20.87;68.66
62402;BME280;48440;51.224;22.506;2022-07-03T19:43:33;99473.81;;;20.82;68.74
62402;BME280;48440;51.224;22.506;2022-07-03T19:45:59;99462.47;;;20.75;69.04
62402;BME280;48440;51.224;22.506;2022-07-03T19:48:24;99466.97;;;20.71;69.31
62402;BME280;48440;51.224;22.506;2022-07-03T19:50:50;99463.84;;;20.63;69.51
62402;BME280;48440;51.224;22.506;2022-07-03T19:53:16;99461.72;;;20.60;69.38
62402;BME280;48440;51.224;22.506;2022-07-03T19:55:41;99465.13;;;20.57;69.54
62402;BME280;48440;51.224;22.506;2022-07-03T19:58:07;99464.13;;;20.53;69.70
62402;BME280;48440;51.224;22.506;2022-07-03T20:00:32;99458.94;;;20.52;69.79
62402;BME280;48440;51.224;22.506;2022-07-03T20:02:58;99461.22;;;20.50;69.73
62402;BME280;48440;51.224;22.506;2022-07-03T20:05:24;99457.63;;;20.49;69.66
62402;BME280;48440;51.224;22.506;2022-07-03T20:07:50;99457.13;;;20.47;69.63
62402;BME280;48440;51.224;22.506;2022-07-03T20:10:16;99456.94;;;20.44;69.54
62402;BME280;48440;51.224;22.506;2022-07-03T20:12:42;99461.78;;;20.38;69.62
62402;BME280;48440;51.224;22.506;2022-07-03T20:15:08;99457.19;;;20.33;69.65
62402;BME280;48440;51.224;22.506;2022-07-03T20:17:34;99459.94;;;20.33;69.45
62402;BME280;48440;51.224;22.506;2022-07-03T20:20:00;99453.91;;;20.31;69.74
62402;BME280;48440;51.224;22.506;2022-07-03T20:22:26;99455.53;;;20.32;69.61
62402;BME280;48440;51.224;22.506;2022-07-03T20:24:51;99453.41;;;20.29;70.00
62402;BME280;48440;51.224;22.506;2022-07-03T20:27:17;99461.38;;;20.31;69.75
62402;BME280;48440;51.224;22.506;2022-07-03T20:29:45;99460.88;;;20.29;69.79
62402;BME280;48440;51.224;22.506;2022-07-03T20:32:15;99461.03;;;20.24;70.18
62402;BME280;48440;51.224;22.506;2022-07-03T20:34:41;99463.28;;;20.22;70.14
62402;BME280;48440;51.224;22.506;2022-07-03T20:37:08;99459.09;;;20.24;69.78
62402;BME280;48440;51.224;22.506;2022-07-03T20:39:34;99453.38;;;20.21;69.92
62402;BME280;48440;51.224;22.506;2022-07-03T20:42:03;99454.81;;;20.18;69.85
62402;BME280;48440;51.224;22.506;2022-07-03T20:44:30;99457.38;;;20.15;69.83
62402;BME280;48440;51.224;22.506;2022-07-03T20:46:55;99456.25;;;20.16;69.83
62402;BME280;48440;51.224;22.506;2022-07-03T20:49:21;99463.72;;;20.15;69.94
62402;BME280;48440;51.224;22.506;2022-07-03T20:51:46;99467.91;;;20.13;70.09
62402;BME280;48440;51.224;22.506;2022-07-03T20:54:12;99467.53;;;20.06;70.26
62402;BME280;48440;51.224;22.506;2022-07-03T20:56:38;99473.03;;;20.06;70.19
62402;BME280;48440;51.224;22.506;2022-07-03T20:59:03;99463.13;;;20.05;69.71
62402;BME280;48440;51.224;22.506;2022-07-03T21:01:28;99476.91;;;20.05;70.39
62402;BME280;48440;51.224;22.506;2022-07-03T21:03:54;99473.31;;;19.95;70.31
62402;BME280;48440;51.224;22.506;2022-07-03T21:06:21;99478.31;;;19.93;70.35
62402;BME280;48440;51.224;22.506;2022-07-03T21:08:48;99468.72;;;19.91;70.38
62402;BME280;48440;51.224;22.506;2022-07-03T21:11:14;99470.66;;;19.90;70.41
62402;BME280;48440;51.224;22.506;2022-07-03T21:16:28;99470.66;;;19.90;70.33